Time;durP1;ratioP1;P1;durP2;ratioP2;P2;SDS_P1;SDS_P2;PMS_P1;PMS_P2;Temp;Humidity;BMP_temperature;BMP_pressure;BME280_temperature;BME280_humidity;BME280_pressure;Samples;Min_cycle;Max_cycle;Signal;HPM_P1;HPM_P2
2021/03/04 00:00:38;;;;;;;37.90;25.87;;;8.70;79.00;;;;;;5024126;28;20911;-40
2021/03/04 00:03:06;;;;;;;33.97;25.33;;;8.70;79.10;;;;;;5029210;28;20962;-40
2021/03/04 00:05:33;;;;;;;40.43;26.90;;;8.70;79.10;;;;;;5025307;28;20598;-40
2021/03/04 00:08:02;;;;;;;37.57;26.50;;;8.70;79.10;;;;;;5025780;28;20463;-40
2021/03/04 00:10:29;;;;;;;38.13;27.60;;;8.70;79.10;;;;;;5028804;28;20486;-40
2021/03/04 00:12:58;;;;;;;32.13;24.00;;;8.60;79.10;;;;;;5008535;28;20460;-40
2021/03/04 00:15:28;;;;;;;39.07;26.07;;;8.60;79.20;;;;;;5025963;28;20974;-40
2021/03/04 00:17:54;;;;;;;36.60;25.10;;;8.60;79.20;;;;;;5008940;28;20456;-40
2021/03/04 00:20:23;;;;;;;37.23;24.90;;;8.60;79.30;;;;;;5026207;28;20542;-40
2021/03/04 00:22:49;;;;;;;43.93;26.37;;;8.60;79.30;;;;;;5026937;28;20463;-40
2021/03/04 00:25:19;;;;;;;37.50;26.57;;;8.50;79.30;;;;;;5034068;28;20987;-40
2021/03/04 00:27:48;;;;;;;40.07;27.37;;;8.50;79.40;;;;;;5043555;28;20513;-40
2021/03/04 00:30:18;;;;;;;41.47;25.87;;;8.50;79.40;;;;;;4996661;28;20486;-40
2021/03/04 00:32:44;;;;;;;31.47;24.07;;;8.50;79.50;;;;;;5009994;28;20570;-40
2021/03/04 00:35:12;;;;;;;31.60;24.17;;;8.50;79.60;;;;;;5027847;28;20460;-40
2021/03/04 00:37:38;;;;;;;34.63;24.93;;;8.50;79.60;;;;;;5009857;28;20551;-40
2021/03/04 00:40:11;;;;;;;40.53;24.30;;;8.40;79.70;;;;;;5009803;28;20534;-40
2021/03/04 00:42:44;;;;;;;39.23;26.80;;;8.40;79.80;;;;;;5027860;28;20461;-40
2021/03/04 00:45:14;;;;;;;32.13;23.63;;;8.40;79.90;;;;;;5008842;28;20495;-41
2021/03/04 00:48:01;;;;;;;36.07;26.10;;;8.40;79.90;;;;;;5031822;28;20455;-40
2021/03/04 00:50:27;;;;;;;35.23;23.07;;;8.40;79.90;;;;;;5009343;28;20781;-41
2021/03/04 00:52:54;;;;;;;39.23;24.90;;;8.30;79.90;;;;;;5029130;28;20457;-40
2021/03/04 00:55:21;;;;;;;33.90;23.63;;;8.30;79.90;;;;;;5026990;28;20557;-40
2021/03/04 00:57:47;;;;;;;37.73;24.63;;;8.40;79.70;;;;;;5008651;28;20529;-40
2021/03/04 01:00:14;;;;;;;31.30;22.20;;;8.40;79.70;;;;;;5023781;28;20571;-40
2021/03/04 01:02:44;;;;;;;36.40;22.60;;;8.30;79.70;;;;;;5024402;28;20546;-40
2021/03/04 01:05:11;;;;;;;30.90;22.73;;;8.30;79.80;;;;;;5027894;28;20460;-40
2021/03/04 01:07:37;;;;;;;35.70;23.93;;;8.30;79.80;;;;;;5007136;28;20482;-40
2021/03/04 01:10:09;;;;;;;34.00;22.97;;;8.30;79.80;;;;;;5032242;28;20513;-40
2021/03/04 01:12:36;;;;;;;36.60;22.30;;;8.20;79.80;;;;;;5026327;28;21060;-40
2021/03/04 01:15:07;;;;;;;34.50;24.00;;;8.20;79.70;;;;;;4990281;28;20486;-40
2021/03/04 01:17:33;;;;;;;36.03;24.00;;;8.20;79.80;;;;;;5028632;28;20964;-40
2021/03/04 01:20:11;;;;;;;35.90;22.40;;;8.20;79.80;;;;;;5028580;28;20459;-40
2021/03/04 01:22:38;;;;;;;32.50;24.77;;;8.10;79.80;;;;;;5009208;28;20471;-40
2021/03/04 01:25:06;;;;;;;35.07;24.50;;;8.10;79.80;;;;;;5027984;28;20555;-40
2021/03/04 01:27:37;;;;;;;38.27;23.03;;;8.00;79.80;;;;;;5027725;28;20494;-40
2021/03/04 01:30:07;;;;;;;38.67;23.90;;;8.00;79.90;;;;;;5008513;28;20670;-40
2021/03/04 01:32:33;;;;;;;31.33;23.97;;;8.00;79.90;;;;;;5009982;28;20538;-40
2021/03/04 01:35:00;;;;;;;36.50;22.00;;;8.00;79.90;;;;;;5008857;28;20487;-40
2021/03/04 01:37:26;;;;;;;37.83;23.47;;;8.00;79.90;;;;;;5027100;28;20456;-40
2021/03/04 01:39:56;;;;;;;37.00;23.73;;;7.90;79.90;;;;;;5026923;28;20544;-40
2021/03/04 01:42:22;;;;;;;33.80;22.90;;;7.90;80.00;;;;;;5007791;28;20503;-40
2021/03/04 01:44:48;;;;;;;37.27;24.20;;;7.90;80.00;;;;;;5026996;28;20486;-41
2021/03/04 01:47:16;;;;;;;33.90;23.03;;;7.90;80.20;;;;;;5008592;28;20821;-40
2021/03/04 01:49:43;;;;;;;32.00;23.80;;;7.90;80.20;;;;;;5026018;28;20453;-40
2021/03/04 01:52:13;;;;;;;39.53;24.73;;;7.80;80.30;;;;;;5027982;28;20821;-40
2021/03/04 01:54:39;;;;;;;34.47;23.70;;;7.80;80.40;;;;;;5026141;28;20514;-40
2021/03/04 01:57:05;;;;;;;35.63;23.30;;;7.80;80.40;;;;;;5025746;28;20524;-40
2021/03/04 01:59:32;;;;;;;35.97;26.60;;;7.80;80.40;;;;;;5029088;28;20452;-40
2021/03/04 02:01:58;;;;;;;38.57;24.97;;;7.80;80.50;;;;;;4992782;28;20468;-40
2021/03/04 02:04:28;;;;;;;35.13;26.20;;;7.80;80.50;;;;;;5027318;28;20477;-40
2021/03/04 02:07:05;;;;;;;33.13;24.30;;;7.80;80.60;;;;;;5010098;28;20539;-40
2021/03/04 02:09:34;;;;;;;32.10;22.13;;;7.70;80.60;;;;;;5021812;28;20563;-40
2021/03/04 02:12:37;;;;;;;35.03;23.00;;;7.80;80.70;;;;;;5008440;28;20473;-40
2021/03/04 02:15:07;;;;;;;37.10;24.23;;;7.70;80.70;;;;;;5033180;28;20563;-40
2021/03/04 02:17:38;;;;;;;36.03;24.50;;;7.70;80.60;;;;;;5023533;28;20716;-40
2021/03/04 02:20:08;;;;;;;43.90;23.67;;;7.70;80.60;;;;;;5023363;28;20510;-40
2021/03/04 02:23:08;;;;;;;41.33;24.50;;;7.70;80.50;;;;;;5006251;28;20546;-40
2021/03/04 02:26:14;;;;;;;35.47;24.13;;;7.70;80.50;;;;;;5041867;28;20986;-40
2021/03/04 02:28:43;;;;;;;35.00;23.90;;;7.70;80.50;;;;;;5023417;28;20558;-40
2021/03/04 02:31:17;;;;;;;40.40;24.80;;;7.60;80.50;;;;;;5025144;28;20568;-40
2021/03/04 02:33:46;;;;;;;35.93;23.57;;;7.70;80.60;;;;;;5025648;28;20529;-40
2021/03/04 02:36:16;;;;;;;37.23;24.57;;;7.70;80.50;;;;;;5024030;28;20521;-40
2021/03/04 02:38:43;;;;;;;36.47;25.37;;;7.70;80.50;;;;;;5025612;28;21068;-40
2021/03/04 02:41:10;;;;;;;34.90;24.27;;;7.70;80.50;;;;;;5004019;28;20538;-40
2021/03/04 02:43:37;;;;;;;34.80;23.77;;;7.60;80.60;;;;;;5008115;28;20486;-41
2021/03/04 02:46:03;;;;;;;36.03;22.40;;;7.60;80.60;;;;;;5005090;28;20490;-40
2021/03/04 02:48:31;;;;;;;34.33;23.43;;;7.60;80.70;;;;;;5031801;28;20514;-40
2021/03/04 02:50:59;;;;;;;35.93;24.43;;;7.60;80.70;;;;;;5005817;28;20589;-40
2021/03/04 02:53:27;;;;;;;38.13;24.97;;;7.60;80.80;;;;;;5031651;28;20463;-40
2021/03/04 02:56:00;;;;;;;36.80;24.77;;;7.50;80.70;;;;;;5027451;28;20513;-40
2021/03/04 02:58:27;;;;;;;35.40;23.83;;;7.50;80.90;;;;;;5024660;28;20550;-40
2021/03/04 03:00:54;;;;;;;39.43;24.90;;;7.50;80.90;;;;;;5007990;28;20495;-40
2021/03/04 03:03:21;;;;;;;37.13;24.93;;;7.50;80.90;;;;;;4992022;28;20539;-40
2021/03/04 03:05:49;;;;;;;40.27;26.43;;;7.40;81.00;;;;;;5005250;28;20471;-40
2021/03/04 03:08:17;;;;;;;35.43;25.63;;;7.40;81.00;;;;;;5025410;28;20476;-40
2021/03/04 03:10:46;;;;;;;39.90;24.00;;;7.40;81.00;;;;;;5004214;28;21064;-40
2021/03/04 03:13:14;;;;;;;35.43;24.63;;;7.40;81.00;;;;;;4989014;28;20466;-40
2021/03/04 03:15:40;;;;;;;35.17;25.53;;;7.40;80.90;;;;;;5022987;28;20956;-40
2021/03/04 03:18:07;;;;;;;38.70;25.37;;;7.30;81.00;;;;;;5015971;28;20474;-40
2021/03/04 03:20:34;;;;;;;35.20;25.80;;;7.30;81.00;;;;;;5008637;28;21246;-40
2021/03/04 03:23:07;;;;;;;39.40;26.90;;;7.30;81.00;;;;;;5023280;28;20459;-40
2021/03/04 03:25:34;;;;;;;38.27;28.77;;;7.20;80.90;;;;;;5016989;28;20455;-40
2021/03/04 03:28:01;;;;;;;41.27;24.83;;;7.20;80.90;;;;;;4989199;28;21037;-40
2021/03/04 03:30:29;;;;;;;35.77;23.83;;;7.20;81.00;;;;;;5024763;28;20578;-40
2021/03/04 03:33:03;;;;;;;37.00;23.40;;;7.20;81.00;;;;;;5009342;28;20558;-42
2021/03/04 03:35:30;;;;;;;30.37;22.10;;;7.10;81.00;;;;;;5005973;28;20553;-42
2021/03/04 03:38:01;;;;;;;38.00;25.30;;;7.10;81.00;;;;;;5006232;28;20464;-42
2021/03/04 03:40:30;;;;;;;37.23;24.30;;;7.10;81.00;;;;;;5022160;28;21722;-42
2021/03/04 03:42:59;;;;;;;33.53;23.17;;;7.10;80.90;;;;;;5020833;28;20812;-42
2021/03/04 03:45:40;;;;;;;32.10;21.50;;;7.10;80.90;;;;;;5023877;28;20478;-42
2021/03/04 03:48:20;;;;;;;34.00;23.43;;;7.10;81.00;;;;;;5024778;28;20456;-42
2021/03/04 03:50:54;;;;;;;32.23;21.83;;;7.00;81.00;;;;;;5023926;28;20518;-42
2021/03/04 03:53:22;;;;;;;40.03;24.40;;;7.00;81.00;;;;;;5023407;28;20546;-42
2021/03/04 03:55:50;;;;;;;33.40;23.33;;;7.00;81.10;;;;;;5006581;28;20964;-42
2021/03/04 03:58:18;;;;;;;29.77;22.33;;;7.00;81.10;;;;;;5007184;28;20517;-42
2021/03/04 04:00:45;;;;;;;29.50;21.80;;;7.00;81.30;;;;;;5003673;28;20475;-42
2021/03/04 04:03:15;;;;;;;33.90;23.07;;;7.00;81.30;;;;;;5023559;28;20535;-42
2021/03/04 04:05:42;;;;;;;55.37;25.33;;;7.00;81.30;;;;;;5022880;28;20867;-42
2021/03/04 04:08:09;;;;;;;36.30;23.60;;;7.00;81.30;;;;;;5022397;28;20542;-42
2021/03/04 04:10:39;;;;;;;38.87;24.00;;;7.00;81.50;;;;;;5026706;28;20487;-42
2021/03/04 04:13:18;;;;;;;34.90;23.73;;;7.00;81.60;;;;;;5008471;28;20505;-42
2021/03/04 04:15:44;;;;;;;35.10;23.37;;;7.00;81.60;;;;;;5022352;28;20497;-42
2021/03/04 04:18:11;;;;;;;34.50;23.40;;;7.00;81.70;;;;;;5023131;28;20467;-42
2021/03/04 04:20:49;;;;;;;34.80;23.60;;;7.00;81.70;;;;;;5022142;28;20465;-42
2021/03/04 04:23:21;;;;;;;34.17;24.23;;;7.00;81.80;;;;;;5022826;28;20980;-42
2021/03/04 04:25:53;;;;;;;32.97;21.70;;;7.00;81.80;;;;;;5023267;28;20464;-42
2021/03/04 04:28:29;;;;;;;34.30;23.40;;;7.00;81.80;;;;;;5023822;28;20491;-42
2021/03/04 04:30:57;;;;;;;34.20;24.13;;;7.00;81.80;;;;;;5025827;28;20491;-42
2021/03/04 04:33:24;;;;;;;30.53;21.13;;;7.00;81.80;;;;;;5025369;28;21008;-42
2021/03/04 04:35:51;;;;;;;36.30;22.40;;;7.00;81.70;;;;;;4991524;28;20459;-42
2021/03/04 04:38:21;;;;;;;33.10;22.53;;;7.10;81.60;;;;;;5021496;28;20909;-42
2021/03/04 04:40:47;;;;;;;32.37;21.47;;;7.10;81.30;;;;;;5022695;28;20582;-42
2021/03/04 04:43:14;;;;;;;39.30;25.70;;;7.10;81.10;;;;;;5019069;28;20561;-42
2021/03/04 04:45:40;;;;;;;30.87;22.03;;;7.10;81.10;;;;;;5042081;28;21002;-42
2021/03/04 04:48:07;;;;;;;32.73;23.23;;;7.00;81.10;;;;;;5009871;28;21043;-42
2021/03/04 04:50:33;;;;;;;34.43;22.83;;;7.00;81.30;;;;;;5006993;28;20499;-42
2021/03/04 04:53:00;;;;;;;33.93;20.80;;;7.00;81.10;;;;;;5043879;28;20447;-42
2021/03/04 04:55:26;;;;;;;29.67;21.93;;;7.00;81.10;;;;;;5006386;28;20890;-42
2021/03/04 04:57:52;;;;;;;29.83;20.90;;;6.90;81.30;;;;;;5009251;28;20494;-42
2021/03/04 05:00:20;;;;;;;34.30;24.27;;;6.90;81.30;;;;;;5031455;28;20467;-42
2021/03/04 05:02:46;;;;;;;37.00;23.73;;;6.90;81.30;;;;;;5008912;28;20459;-42
2021/03/04 05:05:16;;;;;;;37.87;23.67;;;6.90;81.40;;;;;;5025717;28;20455;-42
2021/03/04 05:07:42;;;;;;;32.50;22.40;;;6.90;81.40;;;;;;5043566;28;20464;-42
2021/03/04 05:10:09;;;;;;;35.20;22.93;;;6.90;81.50;;;;;;5028269;28;21158;-41
2021/03/04 05:12:36;;;;;;;35.97;24.07;;;6.90;81.60;;;;;;5008044;28;20781;-41
2021/03/04 05:15:08;;;;;;;41.60;25.33;;;6.90;81.70;;;;;;5010822;28;20531;-42
2021/03/04 05:17:36;;;;;;;33.27;23.90;;;6.90;81.70;;;;;;5021981;28;20469;-42
2021/03/04 05:20:09;;;;;;;37.43;25.23;;;6.90;81.80;;;;;;5029122;28;20968;-42
2021/03/04 05:22:35;;;;;;;43.93;23.40;;;6.90;81.90;;;;;;5010481;28;20526;-42
2021/03/04 05:25:05;;;;;;;34.53;23.30;;;6.90;82.00;;;;;;5030624;28;20495;-42
2021/03/04 05:27:32;;;;;;;33.50;23.63;;;6.90;82.00;;;;;;5026285;28;20493;-42
2021/03/04 05:29:58;;;;;;;35.93;23.00;;;6.90;82.00;;;;;;5024277;28;20794;-42
2021/03/04 05:32:24;;;;;;;39.87;25.27;;;6.90;82.00;;;;;;5023970;28;20467;-42
2021/03/04 05:34:51;;;;;;;33.67;23.57;;;6.90;82.10;;;;;;5024848;28;20459;-42
2021/03/04 05:37:17;;;;;;;33.33;24.63;;;6.90;82.10;;;;;;5008130;28;20498;-42
2021/03/04 05:39:44;;;;;;;37.13;24.33;;;6.90;82.10;;;;;;5024573;28;20488;-42
2021/03/04 05:42:10;;;;;;;36.27;25.47;;;6.90;82.10;;;;;;5028969;28;20980;-42
2021/03/04 05:44:37;;;;;;;37.73;23.57;;;6.90;82.10;;;;;;5005409;28;20481;-42
2021/03/04 05:47:07;;;;;;;38.10;23.67;;;6.90;82.10;;;;;;5025494;28;20542;-42
2021/03/04 05:49:44;;;;;;;35.33;23.80;;;7.00;81.90;;;;;;5029319;28;20531;-42
2021/03/04 05:52:16;;;;;;;34.83;24.07;;;7.10;81.70;;;;;;5021808;28;20483;-42
2021/03/04 05:54:47;;;;;;;37.93;23.60;;;7.00;81.70;;;;;;5024164;28;20893;-42
2021/03/04 05:57:15;;;;;;;37.27;23.77;;;7.00;81.90;;;;;;5022757;28;20472;-42
2021/03/04 05:59:42;;;;;;;34.70;22.87;;;7.00;81.90;;;;;;5007676;28;21036;-42
2021/03/04 06:02:09;;;;;;;40.17;22.97;;;7.00;81.90;;;;;;5005454;28;20545;-42
2021/03/04 06:04:36;;;;;;;31.97;22.60;;;7.00;81.90;;;;;;5008885;28;20945;-42
2021/03/04 06:07:03;;;;;;;37.30;22.20;;;7.00;82.00;;;;;;5008794;28;20557;-42
2021/03/04 06:09:30;;;;;;;34.73;23.53;;;7.00;82.00;;;;;;5025320;28;21032;-42
2021/03/04 06:12:04;;;;;;;32.20;22.50;;;7.00;81.90;;;;;;5028078;28;20493;-42
2021/03/04 06:14:33;;;;;;;33.50;23.13;;;7.00;82.00;;;;;;5007289;28;20445;-42
2021/03/04 06:17:15;;;;;;;36.17;25.57;;;7.00;82.00;;;;;;5027835;28;20487;-42
2021/03/04 06:19:56;;;;;;;41.37;24.20;;;7.00;82.00;;;;;;5023657;28;20458;-42
2021/03/04 06:22:26;;;;;;;37.33;23.97;;;7.00;82.10;;;;;;5024057;28;20539;-42
2021/03/04 06:24:54;;;;;;;37.17;24.50;;;7.00;82.10;;;;;;5023706;28;20546;-42
2021/03/04 06:27:31;;;;;;;32.00;23.37;;;7.00;82.10;;;;;;5026049;28;20994;-42
2021/03/04 06:30:00;;;;;;;36.03;25.50;;;7.00;82.20;;;;;;5011588;28;21003;-42
2021/03/04 06:32:27;;;;;;;34.47;24.77;;;7.00;82.20;;;;;;5011250;28;20491;-42
2021/03/04 06:35:14;;;;;;;36.63;24.43;;;7.00;82.30;;;;;;5024730;28;20918;-42
2021/03/04 06:37:45;;;;;;;36.17;24.77;;;7.00;82.30;;;;;;5028148;28;20459;-42
2021/03/04 06:40:23;;;;;;;36.60;26.00;;;7.00;82.30;;;;;;5023359;28;20495;-42
2021/03/04 06:42:50;;;;;;;32.40;23.33;;;7.00;82.40;;;;;;5041281;28;20538;-42
2021/03/04 06:45:32;;;;;;;30.43;22.63;;;7.00;82.40;;;;;;5019963;28;20590;-41
2021/03/04 06:48:24;;;;;;;35.50;23.67;;;7.00;82.40;;;;;;5008741;28;20495;-41
2021/03/04 06:51:01;;;;;;;30.10;22.20;;;7.00;82.40;;;;;;5021902;28;20567;-41
2021/03/04 06:53:29;;;;;;;38.03;24.60;;;7.00;82.40;;;;;;5027848;28;20450;-42
2021/03/04 06:56:04;;;;;;;34.07;22.90;;;7.00;82.40;;;;;;5011097;28;20923;-42
2021/03/04 06:58:38;;;;;;;39.00;24.00;;;7.00;82.40;;;;;;5005655;28;20539;-42
2021/03/04 07:01:12;;;;;;;38.70;23.50;;;7.00;82.50;;;;;;5042293;28;20443;-42
2021/03/04 07:03:49;;;;;;;35.40;24.03;;;7.00;82.50;;;;;;5009127;28;21060;-42
2021/03/04 07:06:35;;;;;;;36.23;24.20;;;7.10;82.60;;;;;;5025383;28;21078;-42
2021/03/04 07:09:02;;;;;;;37.00;24.97;;;7.10;82.60;;;;;;5024053;28;20463;-42
2021/03/04 07:11:34;;;;;;;38.97;25.40;;;7.10;82.60;;;;;;5007796;28;20483;-42
2021/03/04 07:14:03;;;;;;;31.63;24.30;;;7.10;82.70;;;;;;5007503;28;20468;-42
2021/03/04 07:16:32;;;;;;;42.90;26.67;;;7.10;82.80;;;;;;5025371;28;20807;-42
2021/03/04 07:19:01;;;;;;;40.57;24.20;;;7.10;82.90;;;;;;5024752;28;20459;-42
2021/03/04 07:21:39;;;;;;;40.03;24.90;;;7.20;82.90;;;;;;5031365;28;20466;-42
2021/03/04 07:24:06;;;;;;;53.93;26.20;;;7.20;82.90;;;;;;5021518;28;20555;-42
2021/03/04 07:26:40;;;;;;;43.00;25.17;;;7.20;83.00;;;;;;5028726;28;20960;-42
2021/03/04 07:29:11;;;;;;;38.57;24.83;;;7.30;83.10;;;;;;5027583;28;20455;-42
2021/03/04 07:31:42;;;;;;;39.30;27.37;;;7.30;83.10;;;;;;5006608;28;20507;-42
2021/03/04 07:34:12;;;;;;;36.00;26.03;;;7.30;83.00;;;;;;5022094;28;21013;-42
2021/03/04 07:36:50;;;;;;;40.67;28.00;;;7.40;83.10;;;;;;5021973;28;20499;-42
2021/03/04 07:39:30;;;;;;;38.87;26.93;;;7.40;83.10;;;;;;5022283;28;20960;-42
2021/03/04 07:42:02;;;;;;;35.20;26.23;;;7.50;83.20;;;;;;5005431;28;20507;-42
2021/03/04 07:44:32;;;;;;;35.73;26.10;;;7.60;83.20;;;;;;5028439;28;20554;-42
2021/03/04 07:47:01;;;;;;;36.23;26.40;;;7.70;83.20;;;;;;5023375;28;20594;-42
2021/03/04 07:49:47;;;;;;;30.37;24.20;;;7.80;83.00;;;;;;5023728;28;20435;-42
2021/03/04 07:52:18;;;;;;;37.30;26.03;;;7.90;83.00;;;;;;5023770;28;20507;-42
2021/03/04 07:54:49;;;;;;;39.60;26.70;;;8.10;82.90;;;;;;4989727;28;20466;-42
2021/03/04 07:57:18;;;;;;;38.93;24.97;;;8.30;82.50;;;;;;5026025;28;20451;-42
2021/03/04 08:00:05;;;;;;;32.73;21.90;;;8.40;82.10;;;;;;5025547;28;20478;-42
2021/03/04 08:02:32;;;;;;;37.43;23.60;;;8.60;81.50;;;;;;5000401;28;20514;-43
2021/03/04 08:05:11;;;;;;;34.77;22.27;;;8.70;80.90;;;;;;5007586;28;20448;-42
2021/03/04 08:07:44;;;;;;;30.70;23.13;;;8.80;80.20;;;;;;5023541;28;20463;-42
2021/03/04 08:10:19;;;;;;;33.30;20.77;;;8.90;79.60;;;;;;5018519;28;20543;-42
2021/03/04 08:13:00;;;;;;;32.23;21.90;;;9.10;78.80;;;;;;5021503;28;20510;-42
2021/03/04 08:15:34;;;;;;;32.00;20.63;;;9.10;78.10;;;;;;5005981;28;20489;-42
2021/03/04 08:18:03;;;;;;;29.73;21.07;;;9.20;77.40;;;;;;5008130;28;20958;-42
2021/03/04 08:20:31;;;;;;;34.10;20.17;;;9.20;77.20;;;;;;5024603;28;20877;-42
2021/03/04 08:23:01;;;;;;;34.30;21.30;;;9.20;77.10;;;;;;5006219;28;20463;-42
2021/03/04 08:25:31;;;;;;;31.77;21.63;;;9.30;76.30;;;;;;5023340;28;20584;-42
2021/03/04 08:28:01;;;;;;;31.87;23.37;;;9.30;76.10;;;;;;5008497;28;20493;-43
2021/03/04 08:30:28;;;;;;;33.13;23.80;;;9.30;76.20;;;;;;5026203;28;20525;-42
2021/03/04 08:32:56;;;;;;;36.97;23.40;;;9.30;76.40;;;;;;5025305;28;20459;-42
2021/03/04 08:35:23;;;;;;;34.63;23.80;;;9.40;76.60;;;;;;5025947;28;20461;-42
2021/03/04 08:38:03;;;;;;;34.33;23.00;;;9.40;76.70;;;;;;5028132;28;20979;-42
2021/03/04 08:40:54;;;;;;;35.33;22.40;;;9.60;76.70;;;;;;5042693;28;20847;-42
2021/03/04 08:43:23;;;;;;;34.00;23.63;;;9.70;76.00;;;;;;5025498;28;20459;-42
2021/03/04 08:45:55;;;;;;;30.30;21.63;;;9.80;75.70;;;;;;5028243;28;20517;-42
2021/03/04 08:48:27;;;;;;;40.70;26.23;;;9.80;75.40;;;;;;5028770;28;20512;-42
2021/03/04 08:50:58;;;;;;;43.27;28.80;;;9.90;75.30;;;;;;5009056;28;20488;-42
2021/03/04 08:53:30;;;;;;;64.40;37.00;;;10.00;74.70;;;;;;5027022;28;20538;-42
2021/03/04 08:55:59;;;;;;;65.73;37.87;;;10.20;74.50;;;;;;5026625;28;20485;-42
2021/03/04 08:58:30;;;;;;;34.17;22.80;;;10.40;73.90;;;;;;5023864;28;20824;-42
2021/03/04 09:01:00;;;;;;;33.23;21.30;;;10.60;72.20;;;;;;5028494;28;20463;-42
2021/03/04 09:03:28;;;;;;;26.00;20.40;;;10.80;71.40;;;;;;5021454;28;20470;-42
2021/03/04 09:06:05;;;;;;;28.63;21.37;;;10.80;71.40;;;;;;5040969;28;20525;-42
2021/03/04 09:08:34;;;;;;;29.27;20.23;;;10.80;71.40;;;;;;5026379;28;20999;-42
2021/03/04 09:11:00;;;;;;;28.00;21.27;;;10.80;71.20;;;;;;5022674;28;20483;-42
2021/03/04 09:13:29;;;;;;;32.20;21.07;;;10.80;71.20;;;;;;5027567;28;20482;-43
2021/03/04 09:16:05;;;;;;;30.70;21.73;;;10.90;70.40;;;;;;5038381;28;20938;-43
2021/03/04 09:18:46;;;;;;;31.43;21.90;;;11.00;70.20;;;;;;5026374;28;20940;-42
2021/03/04 09:21:18;;;;;;;33.13;21.73;;;11.10;70.00;;;;;;5025863;28;20938;-42
2021/03/04 09:23:45;;;;;;;34.93;20.57;;;11.20;70.20;;;;;;5026297;28;20509;-42
2021/03/04 09:26:16;;;;;;;35.87;24.47;;;11.30;70.20;;;;;;5006043;28;20463;-42
2021/03/04 09:28:46;;;;;;;39.17;24.70;;;11.40;69.30;;;;;;5010834;28;20467;-42
2021/03/04 09:31:16;;;;;;;32.40;20.90;;;11.50;68.90;;;;;;5005159;28;20571;-42
2021/03/04 09:33:43;;;;;;;31.40;21.27;;;11.60;68.30;;;;;;5025580;28;20507;-42
2021/03/04 09:36:17;;;;;;;28.77;21.37;;;11.80;67.80;;;;;;5025162;28;21374;-42
2021/03/04 09:38:54;;;;;;;30.93;22.33;;;11.80;68.20;;;;;;5021510;28;21030;-42
2021/03/04 09:41:24;;;;;;;29.20;19.77;;;12.00;68.30;;;;;;5024350;28;20859;-42
2021/03/04 09:43:56;;;;;;;32.97;22.03;;;12.10;67.30;;;;;;5025041;28;20519;-42
2021/03/04 09:46:35;;;;;;;27.17;20.57;;;12.30;67.80;;;;;;5023947;28;21006;-42
2021/03/04 09:49:21;;;;;;;29.13;19.90;;;12.40;66.30;;;;;;5041939;28;20477;-42
2021/03/04 09:51:47;;;;;;;28.47;21.23;;;12.60;66.70;;;;;;5025254;28;20519;-42
2021/03/04 09:54:27;;;;;;;31.97;22.53;;;12.70;66.40;;;;;;5003143;28;21154;-42
2021/03/04 09:57:18;;;;;;;32.93;20.87;;;12.90;66.00;;;;;;5011488;28;20476;-42
2021/03/04 09:59:49;;;;;;;28.37;21.40;;;13.00;65.80;;;;;;5026264;28;20797;-42
2021/03/04 10:02:17;;;;;;;33.13;22.10;;;13.10;65.40;;;;;;4991536;28;20471;-42
2021/03/04 10:05:03;;;;;;;30.50;23.30;;;13.30;63.40;;;;;;4989099;28;20464;-42
2021/03/04 10:07:31;;;;;;;30.83;22.00;;;13.40;62.30;;;;;;5023795;28;20456;-42
2021/03/04 10:09:59;;;;;;;34.57;22.00;;;13.40;62.30;;;;;;5010512;28;20539;-43
2021/03/04 10:12:26;;;;;;;30.40;21.07;;;13.40;63.20;;;;;;5042981;28;21245;-42
2021/03/04 10:14:56;;;;;;;34.67;22.30;;;13.60;63.20;;;;;;5025844;28;20462;-42
2021/03/04 10:17:27;;;;;;;32.97;22.43;;;13.90;61.60;;;;;;5026961;28;20456;-42
2021/03/04 10:19:53;;;;;;;33.97;22.60;;;14.00;61.00;;;;;;4993653;28;20475;-43
2021/03/04 10:22:23;;;;;;;38.53;22.90;;;14.10;61.30;;;;;;5019686;28;20558;-42
2021/03/04 10:25:10;;;;;;;32.13;21.00;;;14.10;61.70;;;;;;5025789;28;21031;-42
2021/03/04 10:27:39;;;;;;;31.93;23.03;;;14.30;61.80;;;;;;5023639;28;20495;-42
2021/03/04 10:30:08;;;;;;;27.67;20.80;;;14.40;61.40;;;;;;5042502;28;20514;-43
2021/03/04 10:32:35;;;;;;;33.53;22.83;;;14.70;60.00;;;;;;5026195;28;21730;-42
2021/03/04 10:35:06;;;;;;;32.73;22.50;;;14.90;59.50;;;;;;5008604;28;20471;-42
2021/03/04 10:37:33;;;;;;;29.93;23.97;;;15.20;59.20;;;;;;5024032;28;20534;-43
2021/03/04 10:39:59;;;;;;;31.77;22.60;;;15.40;58.80;;;;;;5022825;28;20463;-42
2021/03/04 10:42:25;;;;;;;38.17;25.67;;;15.50;58.40;;;;;;5024956;28;20525;-42
2021/03/04 10:44:59;;;;;;;31.97;23.30;;;15.80;58.20;;;;;;5024781;28;20471;-42
2021/03/04 10:47:29;;;;;;;38.40;25.63;;;16.00;58.00;;;;;;5025313;28;20816;-42
2021/03/04 10:50:00;;;;;;;39.80;24.20;;;16.20;56.70;;;;;;5012838;28;20447;-42
2021/03/04 10:52:26;;;;;;;37.27;24.27;;;16.30;56.90;;;;;;5039872;28;20491;-42
2021/03/04 10:54:53;;;;;;;30.77;22.47;;;16.20;56.20;;;;;;5025721;28;20501;-42
2021/03/04 10:57:20;;;;;;;35.63;23.47;;;16.10;56.60;;;;;;5025388;28;20698;-42
2021/03/04 10:59:53;;;;;;;32.30;23.23;;;16.10;56.80;;;;;;5027500;28;20447;-43
2021/03/04 11:02:19;;;;;;;38.83;24.80;;;16.20;57.40;;;;;;5027147;28;20456;-43
2021/03/04 11:04:46;;;;;;;31.80;23.90;;;16.20;57.00;;;;;;5023367;28;20455;-43
2021/03/04 11:07:12;;;;;;;34.93;24.10;;;16.30;56.90;;;;;;5007360;28;20510;-43
2021/03/04 11:09:39;;;;;;;37.93;23.97;;;16.30;56.50;;;;;;5002067;28;20459;-42
2021/03/04 11:12:06;;;;;;;34.40;23.93;;;16.40;56.20;;;;;;5021544;28;20487;-43
2021/03/04 11:14:33;;;;;;;33.13;23.53;;;16.50;55.40;;;;;;5023397;28;20932;-43
2021/03/04 11:17:00;;;;;;;37.10;24.30;;;16.50;55.50;;;;;;5006834;28;20989;-43
2021/03/04 11:19:26;;;;;;;39.80;25.23;;;16.50;55.40;;;;;;5022657;28;20490;-43
2021/03/04 11:21:52;;;;;;;31.90;22.67;;;16.40;55.70;;;;;;5021592;28;20531;-43
2021/03/04 11:24:19;;;;;;;34.53;24.50;;;16.30;56.30;;;;;;5006428;28;21000;-43
2021/03/04 11:26:48;;;;;;;34.93;24.53;;;16.30;56.50;;;;;;4995088;28;20545;-43
2021/03/04 11:29:14;;;;;;;35.83;25.53;;;16.40;56.20;;;;;;5024437;28;20576;-43
2021/03/04 11:31:43;;;;;;;35.30;24.30;;;16.40;55.80;;;;;;5023404;28;20473;-43
2021/03/04 11:34:11;;;;;;;37.13;25.50;;;16.50;55.60;;;;;;5007228;28;20485;-43
2021/03/04 11:36:37;;;;;;;45.57;26.13;;;16.50;56.20;;;;;;5022888;28;20465;-43
2021/03/04 11:39:05;;;;;;;42.63;27.97;;;16.50;56.50;;;;;;5005509;28;20553;-43
2021/03/04 11:41:32;;;;;;;37.97;25.50;;;16.50;55.80;;;;;;5019959;28;21201;-43
2021/03/04 11:43:58;;;;;;;34.57;24.40;;;16.50;56.00;;;;;;5008135;28;20530;-43
2021/03/04 11:46:25;;;;;;;34.70;26.93;;;16.40;56.20;;;;;;5017587;28;20517;-43
2021/03/04 11:48:52;;;;;;;38.67;25.27;;;16.50;56.10;;;;;;5007343;28;20474;-43
2021/03/04 11:51:20;;;;;;;39.03;28.37;;;16.50;57.00;;;;;;5021764;28;20483;-43
2021/03/04 11:53:46;;;;;;;45.43;25.87;;;16.60;56.70;;;;;;5003701;28;20456;-42
2021/03/04 11:56:22;;;;;;;34.07;25.10;;;16.80;55.90;;;;;;5029481;28;21351;-42
2021/03/04 11:58:50;;;;;;;38.20;26.33;;;16.90;54.50;;;;;;5030179;28;20458;-42
2021/03/04 12:01:17;;;;;;;33.20;25.40;;;17.00;54.40;;;;;;5027724;28;20509;-42
2021/03/04 12:03:44;;;;;;;36.37;23.47;;;17.00;54.60;;;;;;5012102;28;20572;-42
2021/03/04 12:06:10;;;;;;;29.83;22.37;;;16.90;53.90;;;;;;5012338;28;20542;-42
2021/03/04 12:08:37;;;;;;;35.70;23.07;;;16.90;54.40;;;;;;5031135;28;20468;-43
2021/03/04 12:11:23;;;;;;;33.43;23.80;;;16.80;54.40;;;;;;5025572;28;20474;-43
2021/03/04 12:13:49;;;;;;;32.13;22.07;;;16.80;54.80;;;;;;5010472;28;20455;-43
2021/03/04 12:16:18;;;;;;;34.70;22.27;;;16.80;54.90;;;;;;5028051;28;20460;-43
2021/03/04 12:18:50;;;;;;;34.70;22.70;;;16.80;54.70;;;;;;5027149;28;20474;-43
2021/03/04 12:21:17;;;;;;;34.07;23.33;;;16.70;54.70;;;;;;5030863;28;20486;-43
2021/03/04 12:23:44;;;;;;;34.83;21.27;;;16.70;54.70;;;;;;5027479;28;20490;-43
2021/03/04 12:26:12;;;;;;;35.80;24.43;;;16.60;54.70;;;;;;5007683;28;21014;-43
2021/03/04 12:28:43;;;;;;;31.33;22.10;;;16.60;55.00;;;;;;5016083;28;20458;-43
2021/03/04 12:31:14;;;;;;;36.30;25.00;;;16.50;55.40;;;;;;5033895;28;20479;-43
2021/03/04 12:33:43;;;;;;;36.63;22.33;;;16.50;55.60;;;;;;5010613;28;20456;-43
2021/03/04 12:36:09;;;;;;;32.27;21.70;;;16.50;55.50;;;;;;5027979;28;20574;-42
2021/03/04 12:38:35;;;;;;;30.47;22.80;;;16.40;55.40;;;;;;5031674;28;20550;-43
2021/03/04 12:41:02;;;;;;;32.97;20.33;;;16.30;55.60;;;;;;5011177;28;20459;-43
2021/03/04 12:43:28;;;;;;;34.00;21.70;;;16.20;56.40;;;;;;5010709;28;20915;-42
2021/03/04 12:45:55;;;;;;;32.63;20.27;;;16.20;56.00;;;;;;5029189;28;20501;-42
2021/03/04 12:48:22;;;;;;;31.57;21.50;;;16.00;56.00;;;;;;5013818;28;20942;-42